createdAt,value
2022-08-10T00:00:12.933Z,42.42
2022-08-10T00:02:39.973Z,42.07
2022-08-10T00:05:07.175Z,43.04
2022-08-10T00:07:34.453Z,42.43
2022-08-10T00:10:01.493Z,42.45
2022-08-10T00:12:34.634Z,42.28
2022-08-10T00:15:52.868Z,41.52
2022-08-10T00:18:04.254Z,41.30
2022-08-10T00:20:31.335Z,40.99
2022-08-10T00:22:59.508Z,41.13
2022-08-10T00:25:26.535Z,41.13
2022-08-10T00:28:03.612Z,40.82
2022-08-10T00:30:31.294Z,40.75
2022-08-10T00:32:58.533Z,41.08
2022-08-10T00:35:25.692Z,40.59
2022-08-10T00:37:58.085Z,41.34
2022-08-10T00:40:37.574Z,42.65
2022-08-10T00:43:08.212Z,42.71
2022-08-10T00:45:36.053Z,41.77
2022-08-10T00:48:03.537Z,41.49
2022-08-10T00:50:30.892Z,41.50
2022-08-10T00:52:58.095Z,41.51
2022-08-10T00:55:25.372Z,41.93
2022-08-10T00:57:54.931Z,41.11
2022-08-10T01:00:23.448Z,40.94
2022-08-10T01:02:50.815Z,41.97
2022-08-10T01:05:20.666Z,42.03
2022-08-10T01:07:51.092Z,42.44
2022-08-10T01:10:28.812Z,42.37
2022-08-10T01:12:55.936Z,42.66
2022-08-10T01:15:27.292Z,42.22
2022-08-10T01:17:59.013Z,42.42
2022-08-10T01:20:34.173Z,42.15
2022-08-10T01:23:07.573Z,43.09
2022-08-10T01:26:11.562Z,43.50
2022-08-10T01:28:35.175Z,42.61
2022-08-10T01:31:03.373Z,42.30
2022-08-10T01:33:59.194Z,42.67
2022-08-10T01:36:32.161Z,43.72
2022-08-10T01:39:01.853Z,44.38
2022-08-10T01:41:40.878Z,43.82
2022-08-10T01:44:33.694Z,43.55
2022-08-10T01:47:22.714Z,43.59
2022-08-10T01:49:54.303Z,44.09
2022-08-10T01:52:23.933Z,43.80
2022-08-10T01:54:52.872Z,43.40
2022-08-10T01:57:23.933Z,42.94
2022-08-10T02:00:01.985Z,43.32
2022-08-10T02:02:34.674Z,43.89
2022-08-10T02:05:02.861Z,43.33
2022-08-10T02:07:30.813Z,43.43
2022-08-10T02:09:59.509Z,43.37
2022-08-10T02:12:30.454Z,43.74
2022-08-10T02:14:59.659Z,44.27
2022-08-10T02:17:59.779Z,44.96
2022-08-10T02:20:18.613Z,45.97
2022-08-10T02:22:47.333Z,46.01
2022-08-10T02:25:42.122Z,46.43
2022-08-10T02:28:05.212Z,45.58
2022-08-10T02:30:33.333Z,46.76
2022-08-10T02:33:01.952Z,46.31
2022-08-10T02:35:29.293Z,46.76
2022-08-10T02:38:10.452Z,46.28
2022-08-10T02:45:12.825Z,46.54
2022-08-10T02:45:22.328Z,46.14
2022-08-10T02:46:33.975Z,47.56
2022-08-10T02:49:04.972Z,47.63
2022-08-10T02:52:06.997Z,47.02
2022-08-10T02:54:28.852Z,47.78
2022-08-10T02:57:08.013Z,47.64
2022-08-10T02:59:40.331Z,47.26
2022-08-10T03:02:09.013Z,47.44
2022-08-10T03:04:55.963Z,48.21
2022-08-10T03:07:43.989Z,48.04
2022-08-10T03:10:20.053Z,48.66
2022-08-10T03:12:50.472Z,48.02
2022-08-10T03:15:18.988Z,48.48
2022-08-10T03:17:58.373Z,48.84
2022-08-10T03:20:38.401Z,48.23
2022-08-10T03:23:32.655Z,47.97
2022-08-10T03:26:01.261Z,48.41
2022-08-10T03:28:29.532Z,48.83
2022-08-10T03:30:57.532Z,48.70
2022-08-10T03:33:26.292Z,49.50
2022-08-10T03:36:42.879Z,49.22
2022-08-10T03:38:46.420Z,49.16
2022-08-10T03:41:16.100Z,48.12
2022-08-10T03:43:46.732Z,48.47
2022-08-10T03:46:14.412Z,48.90
2022-08-10T03:48:48.842Z,49.20
2022-08-10T03:51:17.854Z,49.18
2022-08-10T03:54:04.779Z,48.60
2022-08-10T03:56:33.152Z,48.41
2022-08-10T03:59:00.932Z,47.94
2022-08-10T04:02:43.348Z,48.27
2022-08-10T04:04:22.508Z,48.37
2022-08-10T04:06:55.879Z,48.39
2022-08-10T04:09:24.035Z,49.07
2022-08-10T04:11:51.012Z,49.34
2022-08-10T04:14:44.965Z,48.30
2022-08-10T04:17:05.292Z,49.22
2022-08-10T04:19:42.213Z,49.57
2022-08-10T04:22:14.301Z,49.37
2022-08-10T04:24:42.132Z,49.52
2022-08-10T04:27:09.494Z,50.25
2022-08-10T04:29:36.693Z,49.68
2022-08-10T04:32:04.579Z,50.26
2022-08-10T04:34:32.780Z,49.73
2022-08-10T04:37:04.359Z,49.80
2022-08-10T04:39:34.125Z,49.38
2022-08-10T04:42:01.292Z,48.39
2022-08-10T04:44:28.292Z,48.83
2022-08-10T04:46:58.204Z,48.95
2022-08-10T04:49:54.028Z,48.65
2022-08-10T04:52:14.093Z,48.81
2022-08-10T04:54:41.811Z,48.57
2022-08-10T04:57:09.281Z,48.78
2022-08-10T04:59:36.692Z,48.52
2022-08-10T05:02:22.082Z,48.90
2022-08-10T05:04:50.891Z,49.89
2022-08-10T05:07:18.347Z,48.45
2022-08-10T05:10:02.230Z,48.20
2022-08-10T05:12:34.631Z,47.67
2022-08-10T05:15:03.373Z,47.59
2022-08-10T05:17:30.452Z,48.45
2022-08-10T05:20:03.568Z,48.25
2022-08-10T05:22:34.135Z,47.96
2022-08-10T05:25:01.270Z,47.48
2022-08-10T05:27:28.373Z,47.25
2022-08-10T05:30:02.627Z,45.35
2022-08-10T05:32:55.658Z,45.32
2022-08-10T05:35:21.574Z,44.52
2022-08-10T05:38:10.596Z,43.74
2022-08-10T05:40:42.712Z,43.47
2022-08-10T05:43:21.696Z,42.99
2022-08-10T05:46:17.166Z,42.82
2022-08-10T05:48:56.085Z,42.37
2022-08-10T05:51:25.654Z,42.17
2022-08-10T05:54:02.028Z,42.50
2022-08-10T05:56:53.566Z,42.21
2022-08-10T06:00:11.170Z,42.18
2022-08-10T06:02:32.109Z,41.03
2022-08-10T06:04:55.853Z,41.19
2022-08-10T06:07:27.495Z,41.17
2022-08-10T06:09:59.636Z,41.18
2022-08-10T06:12:31.743Z,40.98
2022-08-10T06:15:05.777Z,40.22
2022-08-10T06:17:37.697Z,39.59
2022-08-10T06:20:05.092Z,38.76
2022-08-10T06:22:33.466Z,38.35
2022-08-10T06:25:32.379Z,37.45
2022-08-10T06:27:52.332Z,38.03
2022-08-10T06:30:20.956Z,38.26
2022-08-10T06:32:53.452Z,38.42
2022-08-10T06:35:21.133Z,37.97
2022-08-10T06:37:50.958Z,38.75
2022-08-10T06:40:19.902Z,38.13
2022-08-10T06:42:48.571Z,38.16
2022-08-10T06:45:38.773Z,38.59
2022-08-10T06:48:10.492Z,39.33
2022-08-10T06:50:56.071Z,38.83
2022-08-10T06:53:54.054Z,39.64
2022-08-10T06:56:36.862Z,38.74
2022-08-10T06:59:22.237Z,38.85
2022-08-10T07:01:52.502Z,38.44
2022-08-10T07:04:32.806Z,37.99
2022-08-10T07:07:02.452Z,38.19
2022-08-10T07:09:30.932Z,38.61
2022-08-10T07:11:58.653Z,38.65
2022-08-10T07:14:44.052Z,39.33
2022-08-10T07:17:15.683Z,39.72
2022-08-10T07:19:50.096Z,39.44
2022-08-10T07:23:53.774Z,39.92
2022-08-10T07:25:09.181Z,40.16
2022-08-10T07:27:39.163Z,39.94
2022-08-10T07:30:28.655Z,39.79
2022-08-10T07:32:56.461Z,39.92
2022-08-10T07:35:24.733Z,39.75
2022-08-10T07:37:53.222Z,39.15
2022-08-10T07:40:21.433Z,39.45
2022-08-10T07:42:51.455Z,39.43
2022-08-10T07:45:18.820Z,38.75
2022-08-10T07:48:18.015Z,38.82
2022-08-10T07:50:46.670Z,38.60
2022-08-10T07:53:17.652Z,38.80
2022-08-10T07:56:04.465Z,38.72
2022-08-10T07:58:39.812Z,38.23
2022-08-10T08:01:15.371Z,38.68
2022-08-10T08:03:46.814Z,38.46
2022-08-10T08:06:34.012Z,38.54
2022-08-10T08:09:02.012Z,38.33
2022-08-10T08:11:30.095Z,38.90
2022-08-10T08:13:58.852Z,39.07
2022-08-10T08:16:26.019Z,37.80
2022-08-10T08:19:25.520Z,37.03
2022-08-10T08:24:09.203Z,36.66
2022-08-10T08:24:34.222Z,37.18
2022-08-10T08:27:06.111Z,37.14
2022-08-10T08:29:37.457Z,37.82
2022-08-10T08:32:05.144Z,38.00
2022-08-10T08:34:33.015Z,38.52
2022-08-10T08:37:01.213Z,38.23
2022-08-10T08:39:28.868Z,38.03
2022-08-10T08:42:15.332Z,37.31
2022-08-10T08:44:42.412Z,37.73
2022-08-10T08:48:02.983Z,36.59
2022-08-10T08:50:16.662Z,37.59
2022-08-10T08:53:02.253Z,37.75
2022-08-10T08:56:04.736Z,37.18
2022-08-10T08:58:47.173Z,37.01
2022-08-10T09:01:23.740Z,36.69
2022-08-10T09:04:19.706Z,35.59
2022-08-10T09:06:51.852Z,35.83
2022-08-10T09:09:44.294Z,34.96
2022-08-10T09:12:34.214Z,33.98
2022-08-10T09:15:04.373Z,34.41
2022-08-10T09:17:34.134Z,33.62
2022-08-10T09:20:17.580Z,33.49
2022-08-10T09:22:57.393Z,33.93
2022-08-10T09:25:26.502Z,34.06
2022-08-10T09:28:12.213Z,33.41
2022-08-10T09:31:03.698Z,32.86
2022-08-10T09:36:22.615Z,33.49
2022-08-10T09:36:46.854Z,32.97
2022-08-10T09:40:55.990Z,32.82
2022-08-10T09:42:07.540Z,31.78
2022-08-10T09:44:57.606Z,32.16
2022-08-10T09:48:01.506Z,30.93
2022-08-10T09:51:22.791Z,30.68
2022-08-10T09:53:52.533Z,31.05
2022-08-10T09:56:22.361Z,31.42
2022-08-10T09:59:27.242Z,30.17
2022-08-10T10:02:03.716Z,30.23
2022-08-10T10:04:31.492Z,29.51
2022-08-10T10:07:04.735Z,29.79
2022-08-10T10:09:37.094Z,29.55
2022-08-10T10:12:09.713Z,28.87
2022-08-10T10:15:25.156Z,29.57
2022-08-10T10:18:08.020Z,28.35
2022-08-10T10:20:35.221Z,28.27
2022-08-10T10:23:02.212Z,27.83
2022-08-10T10:25:49.846Z,27.64
2022-08-10T10:28:57.548Z,29.26
2022-08-10T10:31:27.612Z,27.55
2022-08-10T10:34:02.702Z,27.44
2022-08-10T10:36:30.013Z,27.82
2022-08-10T10:38:59.059Z,27.96
2022-08-10T10:41:29.133Z,27.87
2022-08-10T10:44:14.774Z,27.88
2022-08-10T10:47:00.412Z,28.23
2022-08-10T10:49:43.134Z,28.22
2022-08-10T10:52:20.532Z,26.72
2022-08-10T10:54:50.533Z,26.15
2022-08-10T10:57:58.656Z,26.48
2022-08-10T11:00:18.653Z,27.53
2022-08-10T11:14:23.302Z,27.15
2022-08-10T11:16:37.053Z,27.49
2022-08-10T11:19:19.054Z,27.89
2022-08-10T11:22:07.413Z,27.90
2022-08-10T11:24:57.500Z,28.31
2022-08-10T11:27:49.180Z,27.96
2022-08-10T11:30:26.293Z,27.16
2022-08-10T11:33:32.620Z,26.46
2022-08-10T11:36:06.252Z,26.26
2022-08-10T11:39:13.396Z,25.93
2022-08-10T11:42:07.740Z,25.83
2022-08-10T11:44:47.862Z,24.82
2022-08-10T11:47:21.211Z,25.43
2022-08-10T11:50:00.373Z,24.97
2022-08-10T11:52:30.333Z,24.69
2022-08-10T11:55:03.621Z,22.71
2022-08-10T11:57:53.396Z,23.50
2022-08-10T12:00:21.132Z,23.38
2022-08-10T12:02:57.509Z,22.86
2022-08-10T12:05:46.588Z,22.46
2022-08-10T12:10:04.071Z,23.46
2022-08-10T12:11:09.532Z,23.16
2022-08-10T12:14:20.278Z,22.11
2022-08-10T12:16:58.341Z,22.15
2022-08-10T12:19:58.789Z,22.44
2022-08-10T12:22:30.132Z,22.39
2022-08-10T12:25:04.374Z,21.97
2022-08-10T12:27:50.733Z,21.41
2022-08-10T12:30:23.371Z,21.04
2022-08-10T12:33:05.212Z,20.46
2022-08-10T12:35:56.065Z,20.94
2022-08-10T12:38:40.461Z,20.74
2022-08-10T12:41:43.839Z,21.05
2022-08-10T12:44:15.133Z,21.88
2022-08-10T12:46:57.175Z,22.22
2022-08-10T12:49:39.780Z,22.37
2022-08-10T12:52:38.331Z,22.76
2022-08-10T12:55:07.932Z,22.96
2022-08-10T12:57:39.213Z,22.61
2022-08-10T13:00:09.914Z,22.36
2022-08-10T13:02:49.184Z,21.67
2022-08-10T13:05:17.852Z,22.57
2022-08-10T13:08:26.033Z,19.99
2022-08-10T13:10:45.095Z,20.39
2022-08-10T13:13:15.972Z,19.55
2022-08-10T13:15:50.500Z,19.50
2022-08-10T13:18:28.260Z,19.76
2022-08-10T13:21:04.933Z,19.61
2022-08-10T13:24:03.622Z,18.90
2022-08-10T13:27:25.298Z,18.80
2022-08-10T13:29:33.266Z,18.88
2022-08-10T13:32:09.681Z,18.95
2022-08-10T13:34:44.855Z,19.70
2022-08-10T13:37:16.212Z,20.40
2022-08-10T13:39:59.088Z,20.74
2022-08-10T13:42:33.022Z,20.22
2022-08-10T13:45:10.196Z,19.73
2022-08-10T13:47:49.207Z,20.04
2022-08-10T13:50:33.638Z,19.94
2022-08-10T13:53:14.654Z,20.57
2022-08-10T13:55:54.093Z,21.55
2022-08-10T13:58:26.695Z,22.00
2022-08-10T14:00:55.514Z,21.63
2022-08-10T14:03:23.933Z,22.89
2022-08-10T14:05:58.733Z,23.44
2022-08-10T14:08:30.053Z,22.57
2022-08-10T14:11:11.211Z,22.38
2022-08-10T14:14:08.213Z,22.33
2022-08-10T14:16:42.656Z,22.27
2022-08-10T14:19:24.967Z,22.32
2022-08-10T14:21:52.933Z,22.84
2022-08-10T14:24:27.460Z,23.05
2022-08-10T14:27:04.413Z,23.36
2022-08-10T14:29:38.853Z,23.02
2022-08-10T14:32:08.734Z,22.77
2022-08-10T14:36:16.545Z,23.29
2022-08-10T14:37:38.176Z,22.39
2022-08-10T14:40:14.980Z,23.09
2022-08-10T14:42:53.253Z,22.95
2022-08-10T14:45:24.989Z,23.17
2022-08-10T14:48:00.797Z,22.68
2022-08-10T14:50:32.736Z,21.43
2022-08-10T14:53:09.756Z,21.98
2022-08-10T14:55:59.207Z,21.71
2022-08-10T14:58:31.820Z,21.51
2022-08-10T15:01:00.025Z,21.41
2022-08-10T15:03:58.348Z,21.52
2022-08-10T15:06:30.814Z,20.57
2022-08-10T15:09:19.195Z,21.15
2022-08-10T15:12:13.444Z,22.25
2022-08-10T15:14:45.788Z,21.26
2022-08-10T15:17:23.933Z,21.33
2022-08-10T15:20:02.936Z,20.47
2022-08-10T15:22:40.895Z,20.62
2022-08-10T15:25:18.751Z,20.06
2022-08-10T15:27:55.095Z,20.28
2022-08-10T15:30:32.575Z,19.97
2022-08-10T15:34:00.247Z,19.97
2022-08-10T15:36:40.454Z,19.03
2022-08-10T15:40:21.786Z,20.11
2022-08-10T15:42:55.653Z,20.19
2022-08-10T15:45:26.173Z,20.09
2022-08-10T15:48:03.293Z,19.30
2022-08-10T15:50:44.213Z,19.52
2022-08-10T15:53:15.756Z,19.19
2022-08-10T15:55:55.172Z,20.51
2022-08-10T15:58:40.059Z,19.82
2022-08-10T16:02:14.481Z,20.09
2022-08-10T16:04:08.410Z,20.57
2022-08-10T16:06:43.373Z,20.64
2022-08-10T16:10:22.305Z,20.05
2022-08-10T16:12:16.628Z,19.58
2022-08-10T16:14:47.852Z,19.68
2022-08-10T16:17:16.615Z,20.09
2022-08-10T16:19:57.093Z,20.01
2022-08-10T16:22:35.431Z,20.63
2022-08-10T16:25:14.503Z,20.31
2022-08-10T16:27:44.182Z,21.17
2022-08-10T16:30:11.934Z,21.79
2022-08-10T16:32:39.981Z,21.59
2022-08-10T16:35:10.615Z,21.83
2022-08-10T16:37:58.410Z,21.91
2022-08-10T16:40:29.598Z,23.21
2022-08-10T16:42:58.972Z,24.41
2022-08-10T16:45:37.140Z,24.11
2022-08-10T16:48:06.092Z,24.76
2022-08-10T16:50:41.958Z,25.17
2022-08-10T16:53:14.812Z,25.06
2022-08-10T16:55:50.497Z,25.20
2022-08-10T16:58:43.816Z,25.83
2022-08-10T17:01:24.210Z,25.67
2022-08-10T17:04:07.932Z,26.58
2022-08-10T17:06:36.733Z,26.64
2022-08-10T17:09:07.345Z,27.04
2022-08-10T17:11:37.868Z,27.63
2022-08-10T17:14:09.382Z,27.87
2022-08-10T17:16:40.933Z,28.38
2022-08-10T17:19:15.252Z,29.37
2022-08-10T17:21:51.966Z,29.47
2022-08-10T17:24:24.492Z,29.30
2022-08-10T17:26:51.851Z,29.62
2022-08-10T17:29:58.375Z,29.96
2022-08-10T17:32:29.892Z,29.57
2022-08-10T17:35:01.419Z,30.30
2022-08-10T17:37:34.341Z,30.51
2022-08-10T17:40:11.621Z,30.61
2022-08-10T17:42:40.866Z,30.24
2022-08-10T17:45:21.005Z,29.73
2022-08-10T17:48:07.135Z,30.34
2022-08-10T17:50:38.057Z,30.55
2022-08-10T17:53:17.573Z,29.80
2022-08-10T17:55:47.149Z,29.63
2022-08-10T17:58:18.333Z,30.09
2022-08-10T18:00:49.552Z,29.69
2022-08-10T18:03:25.813Z,29.65
2022-08-10T18:05:56.671Z,30.17
2022-08-10T18:08:35.453Z,30.77
2022-08-10T18:11:05.980Z,31.46
2022-08-10T18:13:55.474Z,30.67
2022-08-10T18:16:26.698Z,31.39
2022-08-10T18:19:00.216Z,30.86
2022-08-10T18:21:30.819Z,30.86
2022-08-10T18:24:07.292Z,31.14
2022-08-10T18:26:37.532Z,31.02
2022-08-10T18:29:13.413Z,30.01
2022-08-10T18:31:48.339Z,30.16
2022-08-10T18:34:18.866Z,30.55
2022-08-10T18:36:48.932Z,30.17
2022-08-10T18:39:22.200Z,30.53
2022-08-10T18:42:05.363Z,29.88
2022-08-10T18:44:41.414Z,29.92
2022-08-10T18:47:19.957Z,30.02
2022-08-10T18:49:56.013Z,29.85
2022-08-10T18:52:26.541Z,30.09
2022-08-10T18:55:03.772Z,30.18
2022-08-10T18:58:17.414Z,30.35
2022-08-10T19:01:17.464Z,30.55
2022-08-10T19:04:00.095Z,30.84
2022-08-10T19:07:04.861Z,31.27
2022-08-10T19:09:56.336Z,31.54
2022-08-10T19:12:42.213Z,31.58
2022-08-10T19:15:18.294Z,31.85
2022-08-10T19:18:06.011Z,32.22
2022-08-10T19:20:57.777Z,32.33
2022-08-10T19:23:38.173Z,32.15
2022-08-10T19:26:57.572Z,32.54
2022-08-10T19:30:05.127Z,32.45
2022-08-10T19:33:06.501Z,32.58
2022-08-10T19:36:03.538Z,32.67
2022-08-10T19:38:57.297Z,32.71
2022-08-10T19:41:32.337Z,32.54
2022-08-10T19:44:11.613Z,32.72
2022-08-10T19:46:48.939Z,32.45
2022-08-10T19:49:55.533Z,33.84
2022-08-10T19:52:30.493Z,33.35
2022-08-10T19:55:31.293Z,35.17
2022-08-10T19:58:31.975Z,35.15
2022-08-10T20:01:05.258Z,35.12
2022-08-10T20:03:56.932Z,35.56
2022-08-10T20:06:37.693Z,35.79
2022-08-10T20:09:23.093Z,35.88
2022-08-10T20:11:59.018Z,35.87
2022-08-10T20:14:36.374Z,34.90
2022-08-10T20:17:13.777Z,35.14
2022-08-10T20:19:56.625Z,35.32
2022-08-10T20:22:28.719Z,35.54
2022-08-10T20:25:02.024Z,35.45
2022-08-10T20:27:58.669Z,36.40
2022-08-10T20:30:33.056Z,37.28
2022-08-10T20:33:18.013Z,36.56
2022-08-10T20:35:53.575Z,36.26
2022-08-10T20:38:40.495Z,36.43
2022-08-10T20:41:33.376Z,36.42
2022-08-10T20:44:32.094Z,36.70
2022-08-10T20:47:18.894Z,37.62
2022-08-10T20:50:16.295Z,37.73
2022-08-10T20:52:45.614Z,37.86
2022-08-10T20:55:14.934Z,37.29
2022-08-10T20:57:56.949Z,36.76
2022-08-10T21:00:49.457Z,37.92
2022-08-10T21:03:35.533Z,37.46
2022-08-10T21:06:35.961Z,39.17
2022-08-10T21:09:34.495Z,40.03
2022-08-10T21:12:16.822Z,40.78
2022-08-10T21:14:56.697Z,41.17
2022-08-10T21:17:52.188Z,40.75
2022-08-10T21:20:30.483Z,41.16
2022-08-10T21:23:05.414Z,40.86
2022-08-10T21:25:51.908Z,41.03
2022-08-10T21:28:44.820Z,40.24
2022-08-10T21:31:55.275Z,39.44
2022-08-10T21:34:59.656Z,39.56
2022-08-10T21:37:39.750Z,39.12
2022-08-10T21:40:41.814Z,38.92
2022-08-10T21:43:47.654Z,38.46
2022-08-10T21:47:30.915Z,38.24
2022-08-10T21:50:27.318Z,37.42
2022-08-10T21:53:44.552Z,37.16
2022-08-10T21:56:51.374Z,36.97
2022-08-10T22:00:11.010Z,37.10
2022-08-10T22:02:58.057Z,38.24
2022-08-10T22:05:51.497Z,38.06
2022-08-10T22:08:44.570Z,37.95
2022-08-10T22:11:37.866Z,38.44
2022-08-10T22:14:26.536Z,38.94
2022-08-10T22:17:59.830Z,38.70
2022-08-10T22:20:49.697Z,38.63
2022-08-10T22:23:41.538Z,38.93
2022-08-10T22:26:36.453Z,38.77
2022-08-10T22:29:42.573Z,38.40
2022-08-10T22:32:37.925Z,39.04
2022-08-10T22:35:32.655Z,38.90
2022-08-10T22:38:44.631Z,38.51
2022-08-10T22:41:40.371Z,38.77
2022-08-10T22:44:29.980Z,39.03
2022-08-10T22:47:17.921Z,39.60
2022-08-10T22:49:44.921Z,40.67
2022-08-10T22:52:18.030Z,41.19
2022-08-10T22:55:18.410Z,41.54
2022-08-10T22:58:09.424Z,40.81
2022-08-10T23:00:37.660Z,40.97
2022-08-10T23:03:12.954Z,40.51
2022-08-10T23:05:54.124Z,40.29
2022-08-10T23:08:32.436Z,40.72
2022-08-10T23:11:07.202Z,41.25
2022-08-10T23:13:42.503Z,41.25
2022-08-10T23:16:37.831Z,40.52
2022-08-10T23:19:22.719Z,40.71
2022-08-10T23:22:05.319Z,40.31
2022-08-10T23:24:38.761Z,40.16
2022-08-10T23:27:12.893Z,40.39
2022-08-10T23:30:04.091Z,40.40
2022-08-10T23:32:42.718Z,40.21
2022-08-10T23:36:13.147Z,40.65
2022-08-10T23:38:06.262Z,40.62
2022-08-10T23:40:35.479Z,40.39
2022-08-10T23:43:04.260Z,40.59
2022-08-10T23:45:53.313Z,40.38
2022-08-10T23:48:23.459Z,40.06
2022-08-10T23:50:59.621Z,40.31
2022-08-10T23:53:35.700Z,40.47
2022-08-10T23:56:12.884Z,39.96
2022-08-10T23:58:46.220Z,40.20
